Time;durP1;ratioP1;P1;durP2;ratioP2;P2;SDS_P1;SDS_P2;PMS_P1;PMS_P2;Temp;Humidity;BMP_temperature;BMP_pressure;BME280_temperature;BME280_humidity;BME280_pressure;Samples;Min_cycle;Max_cycle;Signal;HPM_P1;HPM_P2
2022/11/22 00:01:20;;;;;;;8.35;5.75;;;;;;;12.72;66.07;94451.97;5000543;28;20089;-46
2022/11/22 00:03:48;;;;;;;6.20;5.38;;;;;;;12.79;64.44;94447.47;5001551;28;20481;-44
2022/11/22 00:06:16;;;;;;;8.10;5.75;;;;;;;12.87;63.98;94449.09;4998092;28;20084;-46
2022/11/22 00:08:45;;;;;;;8.57;5.57;;;;;;;12.88;63.87;94442.78;4994807;28;20081;-50
2022/11/22 00:11:13;;;;;;;9.10;5.78;;;;;;;12.96;63.47;94453.09;4997577;28;20505;-44
2022/11/22 00:13:43;;;;;;;6.82;5.00;;;;;;;12.29;64.58;94452.44;4998691;28;20082;-42
2022/11/22 00:16:11;;;;;;;5.73;5.10;;;;;;;12.33;65.71;94458.13;4998813;28;20078;-43
2022/11/22 00:18:39;;;;;;;5.65;4.75;;;;;;;12.46;65.98;94465.25;5000303;28;20088;-44
2022/11/22 00:21:08;;;;;;;6.43;4.95;;;;;;;12.63;65.58;94463.78;5029501;28;20064;-51
2022/11/22 00:23:37;;;;;;;5.13;4.63;;;;;;;12.75;64.67;94458.66;5001747;28;20226;-42
2022/11/22 00:26:05;;;;;;;7.53;4.82;;;;;;;12.63;64.72;94463.78;5004577;28;20066;-42
2022/11/22 00:28:34;;;;;;;6.63;4.82;;;;;;;12.88;64.67;94461.28;5005293;28;20053;-45
2022/11/22 00:31:04;;;;;;;7.63;5.57;;;;;;;12.89;66.48;94460.25;5005780;28;20074;-46
2022/11/22 00:33:32;;;;;;;5.97;4.80;;;;;;;12.97;65.63;94453.91;5005723;28;20463;-46
2022/11/22 00:36:00;;;;;;;7.55;5.25;;;;;;;13.13;65.13;94457.94;5004606;28;20518;-44
2022/11/22 00:38:29;;;;;;;5.63;4.63;;;;;;;13.26;64.31;94445.50;5002030;28;20096;-49
2022/11/22 00:40:57;;;;;;;5.88;4.95;;;;;;;13.23;64.02;94447.72;5002468;28;20772;-47
2022/11/22 00:43:25;;;;;;;6.63;5.00;;;;;;;13.18;64.80;94443.06;5004711;28;20074;-47
2022/11/22 00:45:54;;;;;;;5.30;4.78;;;;;;;13.02;65.15;94438.25;5001622;28;20081;-45
2022/11/22 00:48:23;;;;;;;7.68;5.30;;;;;;;13.21;64.00;94442.66;5001976;28;20554;-42
2022/11/22 00:50:52;;;;;;;8.57;5.37;;;;;;;13.18;63.73;94443.06;5001719;28;20085;-42
2022/11/22 00:53:20;;;;;;;6.03;5.03;;;;;;;13.28;62.79;94439.97;5002975;28;20061;-45
2022/11/22 00:55:48;;;;;;;7.50;5.13;;;;;;;13.34;62.76;94454.22;5004816;28;20072;-43
2022/11/22 00:58:17;;;;;;;5.60;5.00;;;;;;;13.46;62.72;94442.75;5003554;28;20096;-46
2022/11/22 01:00:45;;;;;;;6.25;5.20;;;;;;;13.47;62.33;94444.38;5002304;28;20547;-48
2022/11/22 01:03:14;;;;;;;6.88;5.05;;;;;;;13.64;61.29;94449.19;5003651;28;20096;-47
2022/11/22 01:05:43;;;;;;;7.38;5.10;;;;;;;13.72;61.75;94446.28;5001434;28;20084;-44
2022/11/22 01:08:12;;;;;;;7.13;5.53;;;;;;;13.60;60.93;94459.38;4999990;28;20571;-47
2022/11/22 01:10:40;;;;;;;7.25;5.80;;;;;;;13.58;60.27;94460.63;5003038;28;20532;-43
2022/11/22 01:13:10;;;;;;;7.82;5.80;;;;;;;13.52;61.29;94456.97;5003715;28;20038;-42
2022/11/22 01:15:38;;;;;;;8.00;5.72;;;;;;;13.22;61.82;94467.28;4999696;28;20081;-45
2022/11/22 01:18:07;;;;;;;8.90;6.35;;;;;;;13.32;62.24;94472.97;5005585;28;20092;-45
2022/11/22 01:20:35;;;;;;;6.95;5.35;;;;;;;13.18;62.61;94479.28;5002609;28;20074;-48
2022/11/22 01:23:05;;;;;;;7.05;5.15;;;;;;;13.43;62.24;94482.91;5001844;28;20449;-42
2022/11/22 01:25:33;;;;;;;6.75;5.50;;;;;;;13.13;63.20;94490.50;5003014;28;21701;-44
2022/11/22 01:28:01;;;;;;;6.35;4.95;;;;;;;12.96;64.92;94479.56;5004477;28;20619;-42
2022/11/22 01:30:29;;;;;;;6.03;5.10;;;;;;;13.03;63.87;94479.53;5002141;28;20536;-50
2022/11/22 01:32:58;;;;;;;6.88;5.18;;;;;;;13.18;63.91;94471.34;5004103;28;20092;-42
2022/11/22 01:35:26;;;;;;;6.97;5.20;;;;;;;13.19;63.41;94470.34;5002140;28;20542;-43
2022/11/22 01:37:54;;;;;;;8.13;5.13;;;;;;;13.16;61.99;94460.97;5002663;28;20086;-47
2022/11/22 01:40:24;;;;;;;6.93;5.50;;;;;;;13.21;62.86;94453.25;5003785;28;20092;-42
2022/11/22 01:42:54;;;;;;;7.53;5.63;;;;;;;13.12;64.03;94448.38;5005114;28;20203;-44
2022/11/22 01:45:45;;;;;;;7.82;4.97;;;;;;;13.32;63.84;94453.59;5001145;28;20082;-53
2022/11/22 01:48:19;;;;;;;6.88;5.68;;;;;;;13.15;65.39;94453.25;4994781;28;20081;-45
2022/11/22 01:50:50;;;;;;;7.00;5.50;;;;;;;12.74;67.91;94443.84;5000157;28;20092;-46
2022/11/22 01:53:21;;;;;;;6.63;5.35;;;;;;;12.99;65.28;94428.88;4999173;28;20085;-46
2022/11/22 01:55:50;;;;;;;;;;;;;;;13.13;65.74;94434.13;5004507;28;20468;-46
2022/11/22 01:58:19;;;;;;;6.07;4.93;;;;;;;13.11;65.11;94425.56;5002878;28;19948;-42
2022/11/22 02:00:49;;;;;;;6.57;5.30;;;;;;;12.82;67.73;94419.78;5001408;28;20498;-45
2022/11/22 02:03:18;;;;;;;6.85;5.63;;;;;;;12.99;67.36;94425.44;5005072;28;20101;-47
2022/11/22 02:05:46;;;;;;;6.72;5.47;;;;;;;12.76;68.00;94432.00;5002967;28;20104;-45
2022/11/22 02:08:19;;;;;;;9.27;5.50;;;;;;;12.95;67.60;94430.34;5002773;28;20081;-50
2022/11/22 02:10:52;;;;;;;6.18;5.32;;;;;;;13.13;66.24;94429.66;4999895;28;20086;-46
2022/11/22 02:13:22;;;;;;;7.30;5.13;;;;;;;13.09;68.02;94428.44;5002922;28;20074;-43
2022/11/22 02:15:51;;;;;;;6.05;5.43;;;;;;;13.23;66.39;94440.59;5001396;28;20476;-45
2022/11/22 02:18:19;;;;;;;6.95;5.13;;;;;;;13.11;67.18;94442.28;4998365;28;20104;-49
2022/11/22 02:20:48;;;;;;;5.90;5.28;;;;;;;12.74;70.66;94462.34;5004973;28;20126;-49
2022/11/22 02:23:22;;;;;;;6.80;4.70;;;;;;;13.13;68.75;94440.22;5002161;28;20520;-46
2022/11/22 02:25:54;;;;;;;6.72;5.07;;;;;;;13.09;67.00;94440.88;5001035;28;20082;-44
2022/11/22 02:28:22;;;;;;;6.20;4.97;;;;;;;13.21;66.58;94439.16;5000338;28;20532;-47
2022/11/22 02:30:51;;;;;;;5.78;5.03;;;;;;;13.23;66.15;94437.13;5001696;28;20085;-44
2022/11/22 02:33:19;;;;;;;6.13;5.28;;;;;;;13.34;64.81;94446.28;5001443;28;20548;-44
2022/11/22 02:35:47;;;;;;;5.30;4.80;;;;;;;13.39;64.73;94446.47;5003913;28;20082;-43
2022/11/22 02:38:18;;;;;;;6.00;5.00;;;;;;;13.56;64.23;94442.31;4998620;28;20082;-45
2022/11/22 02:40:50;;;;;;;6.45;4.80;;;;;;;13.70;64.11;94446.50;5003514;28;20089;-42
2022/11/22 02:43:21;;;;;;;7.65;5.32;;;;;;;13.71;64.05;94440.16;5003189;28;20112;-45
2022/11/22 02:45:49;;;;;;;7.78;5.57;;;;;;;13.55;63.96;94445.97;5000965;28;20092;-46
2022/11/22 02:48:18;;;;;;;7.82;4.88;;;;;;;13.61;63.73;94442.47;5005570;28;20550;-48
2022/11/22 02:50:46;;;;;;;6.80;5.35;;;;;;;13.70;63.69;94443.03;5005519;28;20092;-42
2022/11/22 02:53:15;;;;;;;7.60;5.35;;;;;;;13.81;63.26;94439.69;4998606;28;20090;-45
2022/11/22 02:55:43;;;;;;;6.40;5.18;;;;;;;13.90;62.06;94438.41;5000293;28;20086;-42
2022/11/22 02:58:11;;;;;;;6.13;5.00;;;;;;;13.87;61.76;94441.50;5003049;28;20491;-44
2022/11/22 03:00:41;;;;;;;5.82;4.75;;;;;;;13.95;62.27;94429.81;4999488;28;20093;-47
2022/11/22 03:03:09;;;;;;;6.50;4.83;;;;;;;13.68;65.14;94434.47;5003573;28;20583;-48
2022/11/22 03:05:38;;;;;;;4.50;4.13;;;;;;;13.83;63.49;94437.63;5001143;28;20081;-41
2022/11/22 03:08:06;;;;;;;4.80;4.30;;;;;;;13.91;62.52;94450.63;4996296;28;20085;-45
2022/11/22 03:10:34;;;;;;;5.75;4.82;;;;;;;13.92;61.86;94459.38;4998050;28;20089;-42
2022/11/22 03:13:02;;;;;;;5.93;4.43;;;;;;;14.07;61.16;94469.66;5001133;28;20559;-49
2022/11/22 03:15:31;;;;;;;5.43;4.40;;;;;;;14.14;60.36;94460.66;5000055;28;20121;-45
2022/11/22 03:18:02;;;;;;;5.47;4.63;;;;;;;14.21;61.12;94455.28;5002215;28;20534;-46
2022/11/22 03:20:30;;;;;;;6.70;4.75;;;;;;;13.43;62.30;94459.06;5002854;28;20485;-48
2022/11/22 03:23:00;;;;;;;6.72;4.40;;;;;;;13.57;65.82;94453.72;4997490;28;20092;-45
2022/11/22 03:25:29;;;;;;;6.03;4.75;;;;;;;13.70;63.94;94454.44;5001206;28;20050;-45
2022/11/22 03:27:58;;;;;;;5.38;4.68;;;;;;;13.09;69.92;94456.75;4996672;28;20631;-43
2022/11/22 03:30:26;;;;;;;5.88;4.57;;;;;;;13.17;72.82;94451.22;5003249;28;20089;-48
2022/11/22 03:32:55;;;;;;;7.57;4.80;;;;;;;13.09;73.95;94446.16;5001183;28;20108;-41
2022/11/22 03:35:24;;;;;;;4.75;4.20;;;;;;;13.60;70.11;94446.16;5003460;28;20081;-43
2022/11/22 03:37:53;;;;;;;6.47;4.50;;;;;;;13.35;71.67;94459.31;4996056;28;21404;-49
2022/11/22 03:40:21;;;;;;;5.80;4.65;;;;;;;13.48;71.58;94453.13;4999241;28;20461;-43
2022/11/22 03:42:49;;;;;;;4.70;4.30;;;;;;;13.81;67.91;94455.59;5000807;28;20077;-43
2022/11/22 03:45:18;;;;;;;5.38;4.40;;;;;;;13.26;71.20;94476.44;4999647;28;20077;-43
2022/11/22 03:47:46;;;;;;;7.97;4.75;;;;;;;13.32;73.06;94474.78;4996794;28;20086;-42
2022/11/22 03:50:15;;;;;;;6.20;4.43;;;;;;;13.54;72.47;94466.34;4998906;28;20088;-43
2022/11/22 03:52:45;;;;;;;6.30;4.50;;;;;;;13.62;73.98;94473.22;5001463;28;20104;-44
2022/11/22 03:55:13;;;;;;;5.93;4.97;;;;;;;13.14;76.48;94472.78;5000652;28;20080;-46
2022/11/22 03:57:41;;;;;;;6.00;4.53;;;;;;;13.66;72.78;94473.59;4998145;28;21768;-48
2022/11/22 04:00:11;;;;;;;6.60;4.43;;;;;;;13.61;74.37;94481.38;4999532;28;20088;-47
2022/11/22 04:02:39;;;;;;;5.35;4.47;;;;;;;13.35;77.62;94483.16;4999452;28;20537;-47
2022/11/22 04:05:08;;;;;;;5.05;4.15;;;;;;;13.22;82.59;94488.44;4999782;28;20038;-47
2022/11/22 04:07:37;;;;;;;6.38;4.47;;;;;;;13.55;77.35;94483.03;4997779;28;20086;-42
2022/11/22 04:10:07;;;;;;;6.97;4.53;;;;;;;13.79;76.84;94478.81;4998314;28;20077;-41
2022/11/22 04:12:36;;;;;;;5.45;4.60;;;;;;;13.23;81.05;94488.22;4998541;28;20074;-43
2022/11/22 04:15:07;;;;;;;5.45;4.65;;;;;;;13.78;78.74;94479.84;5001616;28;20197;-51
2022/11/22 04:17:44;;;;;;;7.15;5.00;;;;;;;14.11;75.65;94478.81;4999931;28;20074;-48
2022/11/22 04:23:03;;;;;;;7.32;4.95;;;;;;;14.55;72.72;94485.84;4999990;28;20100;-49
2022/11/22 04:25:32;;;;;;;;;;;;;;;14.80;69.52;94487.66;5000018;28;20092;-46
2022/11/22 04:28:00;;;;;;;7.47;4.90;;;;;;;14.62;70.37;94493.72;5000277;28;20454;-43
2022/11/22 04:33:12;;;;;;;7.45;5.10;;;;;;;14.83;70.17;94487.22;4998490;28;20082;-50
2022/11/22 04:35:41;;;;;;;7.05;4.63;;;;;;;14.89;68.91;94487.13;5000530;28;20070;-44
2022/11/22 04:38:09;;;;;;;4.97;4.40;;;;;;;14.70;69.55;94491.63;4999922;28;20517;-45
2022/11/22 04:40:39;;;;;;;5.90;4.43;;;;;;;14.54;73.19;94491.38;5001343;28;20220;-42
2022/11/22 04:45:54;;;;;;;5.72;4.40;;;;;;;14.13;77.98;94492.66;5001596;28;20534;-42
2022/11/22 04:48:22;;;;;;;5.75;4.20;;;;;;;14.10;81.58;94491.25;5003363;28;20093;-42
2022/11/22 04:53:37;;;;;;;7.93;4.40;;;;;;;14.27;81.22;94494.19;5001006;28;20518;-42
2022/11/22 04:56:06;;;;;;;6.40;4.72;;;;;;;14.28;82.30;94495.84;4999628;28;20082;-46
2022/11/22 04:58:35;;;;;;;4.77;4.27;;;;;;;14.37;80.18;94491.88;5000329;28;20096;-49
2022/11/22 05:01:04;;;;;;;6.28;4.55;;;;;;;14.26;83.09;94481.97;4996406;28;20100;-47
2022/11/22 05:03:32;;;;;;;5.57;4.40;;;;;;;14.41;81.82;94484.28;5002196;28;20077;-44
2022/11/22 05:06:01;;;;;;;6.30;4.50;;;;;;;14.45;81.37;94481.00;5014199;28;20077;-42
2022/11/22 05:08:29;;;;;;;6.97;4.70;;;;;;;14.52;81.14;94478.34;5001515;28;20517;-46
2022/11/22 05:10:58;;;;;;;7.60;4.90;;;;;;;14.61;80.31;94486.81;5006895;28;20537;-45
2022/11/22 05:13:30;;;;;;;7.70;4.90;;;;;;;14.89;80.14;94481.03;5001866;28;20088;-46
2022/11/22 05:15:59;;;;;;;8.65;5.82;;;;;;;14.89;78.38;94483.69;5003572;28;20486;-52
2022/11/22 05:18:28;;;;;;;7.93;4.78;;;;;;;14.01;82.16;94493.38;5002636;28;20537;-43
2022/11/22 05:20:56;;;;;;;5.30;4.60;;;;;;;13.82;88.04;94494.28;5003744;28;20081;-48
2022/11/22 05:26:11;;;;;;;7.35;4.90;;;;;;;14.05;82.77;94496.41;5003899;28;20100;-43
2022/11/22 05:28:41;;;;;;;7.55;5.00;;;;;;;14.41;79.44;94497.56;5003093;28;20082;-43
2022/11/22 05:31:10;;;;;;;7.40;5.13;;;;;;;14.57;75.60;94494.41;5004023;28;20088;-51
2022/11/22 05:33:40;;;;;;;7.47;5.23;;;;;;;14.68;75.33;94503.47;5003023;28;22268;-51
2022/11/22 05:36:10;;;;;;;7.10;4.73;;;;;;;14.69;74.85;94505.94;5003089;28;20898;-44
2022/11/22 05:38:38;;;;;;;5.30;4.80;;;;;;;14.66;74.85;94503.72;5006439;28;20073;-52
2022/11/22 05:41:08;;;;;;;5.93;4.75;;;;;;;14.78;75.03;94509.09;5004434;28;20077;-44
2022/11/22 05:43:37;;;;;;;5.18;4.57;;;;;;;14.79;74.52;94508.06;5003874;28;20080;-44
2022/11/22 05:46:08;;;;;;;4.85;4.45;;;;;;;14.95;74.09;94509.34;5004638;28;20073;-49
2022/11/22 05:48:37;;;;;;;7.38;4.40;;;;;;;14.92;72.39;94510.59;5003668;28;20465;-46
2022/11/22 05:51:06;;;;;;;5.07;4.45;;;;;;;14.71;74.55;94511.00;5001380;28;20559;-43
2022/11/22 05:53:35;;;;;;;5.22;4.50;;;;;;;14.88;73.58;94517.38;5001869;28;20493;-46
2022/11/22 05:56:04;;;;;;;5.47;4.13;;;;;;;14.92;73.15;94515.91;5002347;28;20116;-45
2022/11/22 05:58:33;;;;;;;5.30;4.57;;;;;;;14.97;71.77;94517.91;5005076;28;20092;-46
2022/11/22 06:01:07;;;;;;;6.75;4.60;;;;;;;15.03;72.70;94513.56;5008848;28;20096;-45
2022/11/22 06:03:36;;;;;;;7.40;4.28;;;;;;;14.99;71.94;94510.53;5006944;28;20085;-48
2022/11/22 06:06:05;;;;;;;5.68;4.50;;;;;;;15.01;72.10;94512.97;5003697;28;20081;-44
2022/11/22 06:08:36;;;;;;;7.18;4.60;;;;;;;14.99;72.19;94512.38;5009522;28;20634;-46
2022/11/22 06:11:05;;;;;;;5.43;4.38;;;;;;;14.98;73.26;94516.06;5006114;28;20073;-44
2022/11/22 06:13:35;;;;;;;7.00;4.70;;;;;;;14.80;74.83;94516.84;5006821;28;20089;-46
2022/11/22 06:16:03;;;;;;;5.38;4.53;;;;;;;14.30;80.09;94525.56;5003841;28;20089;-48
2022/11/22 06:18:33;;;;;;;5.72;4.80;;;;;;;14.39;82.25;94524.31;5009742;28;20086;-45
2022/11/22 06:21:03;;;;;;;7.40;4.63;;;;;;;14.68;78.19;94522.03;5003933;28;20251;-45
2022/11/22 06:23:32;;;;;;;6.10;4.45;;;;;;;14.48;77.84;94525.63;5008353;28;21539;-47
2022/11/22 06:26:01;;;;;;;5.65;4.60;;;;;;;14.30;81.05;94524.78;5009552;28;20077;-45
2022/11/22 06:28:31;;;;;;;7.03;4.50;;;;;;;14.04;86.02;94523.09;5007170;28;20092;-50
2022/11/22 06:31:01;;;;;;;7.20;5.10;;;;;;;14.16;85.47;94532.00;5001254;28;20574;-43
2022/11/22 06:33:29;;;;;;;6.00;4.63;;;;;;;14.26;84.82;94532.34;5005076;28;20479;-45
2022/11/22 06:36:03;;;;;;;6.55;4.95;;;;;;;14.63;82.15;94529.84;5006073;28;20074;-45
2022/11/22 06:38:31;;;;;;;7.07;4.93;;;;;;;14.63;81.67;94541.28;5013256;28;20728;-42
2022/11/22 06:41:00;;;;;;;6.88;4.80;;;;;;;14.82;81.17;94536.81;5001159;28;20081;-43
2022/11/22 06:43:29;;;;;;;5.10;4.60;;;;;;;14.89;78.59;94542.88;5001000;28;20089;-48
2022/11/22 06:45:59;;;;;;;5.75;5.10;;;;;;;14.95;77.70;94539.34;4998633;28;20516;-44
2022/11/22 06:48:29;;;;;;;6.95;4.88;;;;;;;15.12;77.09;94541.44;5001853;28;20546;-48
2022/11/22 06:50:59;;;;;;;5.68;4.60;;;;;;;15.00;75.25;94544.00;5006660;28;20107;-54
2022/11/22 06:53:29;;;;;;;10.90;4.95;;;;;;;15.12;75.23;94549.41;5005739;28;20088;-47
2022/11/22 06:56:16;;;;;;;6.50;5.18;;;;;;;15.16;74.76;94548.75;5005758;28;20462;-44
2022/11/22 06:58:45;;;;;;;7.43;6.22;;;;;;;15.22;74.01;94554.22;5001057;28;20093;-49
2022/11/22 07:01:15;;;;;;;10.07;5.93;;;;;;;15.36;73.54;94561.81;5006762;28;20077;-50
2022/11/22 07:03:43;;;;;;;10.65;6.13;;;;;;;15.37;72.66;94563.44;5005475;28;20130;-48
2022/11/22 07:06:13;;;;;;;7.22;4.88;;;;;;;15.27;76.17;94570.28;5009179;28;20077;-43
2022/11/22 07:08:43;;;;;;;6.20;4.60;;;;;;;15.46;76.80;94571.13;5008307;28;20085;-45
2022/11/22 07:11:12;;;;;;;5.97;4.50;;;;;;;15.53;77.04;94577.97;5005912;28;20077;-42
2022/11/22 07:13:40;;;;;;;5.78;4.80;;;;;;;15.38;78.17;94580.16;5004322;28;20069;-46
2022/11/22 07:16:11;;;;;;;7.45;5.28;;;;;;;15.47;78.53;94584.16;5002532;28;20138;-49
2022/11/22 07:18:40;;;;;;;5.72;4.90;;;;;;;15.50;77.65;94586.38;5001041;28;20070;-42
2022/11/22 07:21:10;;;;;;;10.98;4.65;;;;;;;15.73;76.43;94588.41;5003010;28;20082;-45
2022/11/22 07:23:44;;;;;;;5.75;4.35;;;;;;;15.94;76.10;94589.78;5006275;28;20089;-44
2022/11/22 07:26:13;;;;;;;7.47;4.55;;;;;;;15.85;76.70;94596.44;5002012;28;20476;-43
2022/11/22 07:28:42;;;;;;;4.53;3.95;;;;;;;15.70;82.45;94604.81;5005967;28;20093;-48
2022/11/22 07:31:11;;;;;;;6.45;4.10;;;;;;;15.57;85.62;94612.88;5004807;28;20073;-43
2022/11/22 07:33:40;;;;;;;4.22;3.70;;;;;;;15.11;99.03;94608.84;5005280;28;20046;-43
2022/11/22 07:36:10;;;;;;;3.60;3.03;;;;;;;14.54;100.00;94614.19;5004069;28;20092;-44
2022/11/22 07:38:38;;;;;;;5.93;2.80;;;;;;;14.73;100.00;94615.06;5002999;28;20122;-49
2022/11/22 07:41:08;;;;;;;4.68;2.97;;;;;;;14.50;100.00;94615.63;5001324;28;20484;-45
2022/11/22 07:43:37;;;;;;;3.78;3.10;;;;;;;14.40;100.00;94612.59;5000630;28;20100;-42
2022/11/22 07:46:07;;;;;;;3.85;3.10;;;;;;;14.81;100.00;94614.00;4998065;28;20078;-43
2022/11/22 07:48:35;;;;;;;4.68;3.15;;;;;;;14.59;100.00;94621.47;4996679;28;20082;-43
2022/11/22 07:51:05;;;;;;;7.43;2.92;;;;;;;14.87;100.00;94624.56;5000541;28;20085;-48
2022/11/22 07:53:33;;;;;;;4.15;3.13;;;;;;;15.01;100.00;94622.59;5000265;28;20088;-48
2022/11/22 07:56:02;;;;;;;3.67;2.92;;;;;;;14.93;100.00;94634.31;5001143;28;20535;-44
2022/11/22 07:58:33;;;;;;;5.38;2.92;;;;;;;15.10;100.00;94631.91;5002710;28;20438;-48
2022/11/22 08:01:06;;;;;;;4.93;2.50;;;;;;;15.46;100.00;94635.69;4999622;28;20092;-42
2022/11/22 08:03:35;;;;;;;3.63;2.10;;;;;;;14.59;100.00;94640.88;4999116;28;20155;-48
2022/11/22 08:06:04;;;;;;;3.83;2.28;;;;;;;15.15;100.00;94648.00;5003144;28;20081;-43
2022/11/22 08:08:33;;;;;;;5.83;2.40;;;;;;;15.62;100.00;94644.91;5002485;28;20082;-48
2022/11/22 08:11:01;;;;;;;3.53;2.00;;;;;;;15.36;100.00;94646.78;5003089;28;20096;-42
2022/11/22 08:13:32;;;;;;;3.75;1.92;;;;;;;15.01;100.00;94651.81;5003139;28;20089;-52
2022/11/22 08:16:02;;;;;;;5.03;2.25;;;;;;;15.24;100.00;94647.72;5003959;28;20092;-47
2022/11/22 08:18:33;;;;;;;4.55;2.13;;;;;;;15.48;100.00;94659.34;5004596;28;20073;-47
2022/11/22 08:21:03;;;;;;;4.38;2.42;;;;;;;15.42;100.00;94653.09;5005348;28;20566;-45
2022/11/22 08:23:32;;;;;;;4.43;2.97;;;;;;;15.52;100.00;94660.53;5004929;28;20596;-42
2022/11/22 08:26:01;;;;;;;4.40;2.97;;;;;;;15.52;100.00;94660.53;4998310;28;20760;-48
2022/11/22 08:28:29;;;;;;;5.40;3.25;;;;;;;15.59;100.00;94666.63;5005173;28;20081;-46
2022/11/22 08:31:04;;;;;;;5.05;2.90;;;;;;;15.99;100.00;94676.84;4998735;28;20453;-42
2022/11/22 08:33:32;;;;;;;5.75;3.08;;;;;;;15.82;100.00;94682.75;4995533;28;20080;-44
2022/11/22 08:36:01;;;;;;;6.53;2.85;;;;;;;15.66;100.00;94684.16;5003865;28;20108;-45
2022/11/22 08:38:29;;;;;;;5.47;3.00;;;;;;;16.09;100.00;94693.91;5003763;28;20088;-46
2022/11/22 08:40:57;;;;;;;5.13;3.17;;;;;;;16.22;100.00;94694.78;5007923;28;20077;-48
2022/11/22 08:43:26;;;;;;;4.75;3.10;;;;;;;15.99;100.00;94698.91;5005556;28;20085;-44
2022/11/22 08:45:55;;;;;;;5.43;3.20;;;;;;;16.07;100.00;94703.13;5006677;28;20093;-42
2022/11/22 08:48:26;;;;;;;6.40;3.63;;;;;;;15.58;100.00;94707.47;5007368;28;20078;-46
2022/11/22 08:50:56;;;;;;;8.63;3.10;;;;;;;15.22;100.00;94709.03;5008083;28;20085;-45
2022/11/22 08:53:25;;;;;;;5.55;3.20;;;;;;;15.26;100.00;94710.22;5006788;28;20085;-45
2022/11/22 08:55:54;;;;;;;7.22;3.75;;;;;;;15.39;100.00;94703.97;5008004;28;20544;-52
2022/11/22 08:58:23;;;;;;;6.15;3.60;;;;;;;15.79;100.00;94706.28;5009247;28;21291;-44
2022/11/22 09:00:51;;;;;;;6.93;2.70;;;;;;;15.42;100.00;94717.63;5006278;28;20096;-47
2022/11/22 09:03:19;;;;;;;5.25;3.50;;;;;;;15.93;100.00;94709.63;5009411;28;20101;-45
2022/11/22 09:05:49;;;;;;;9.10;3.30;;;;;;;15.65;100.00;94716.19;5006472;28;20139;-50
2022/11/22 09:08:37;;;;;;;6.22;3.22;;;;;;;16.03;100.00;94717.91;5006009;28;20092;-46
2022/11/22 09:11:13;;;;;;;5.43;3.38;;;;;;;16.18;100.00;94722.88;5002478;28;20101;-46
2022/11/22 09:13:42;;;;;;;7.05;4.05;;;;;;;16.47;100.00;94716.75;5008655;28;20528;-45
2022/11/22 09:16:12;;;;;;;5.32;3.28;;;;;;;16.55;100.00;94723.63;5007211;28;20085;-42
2022/11/22 09:18:40;;;;;;;8.95;3.45;;;;;;;16.32;100.00;94725.13;5008037;28;20078;-45
2022/11/22 09:21:14;;;;;;;6.82;3.40;;;;;;;16.55;100.00;94731.59;5008513;28;20587;-47
2022/11/22 09:23:43;;;;;;;7.65;3.80;;;;;;;17.09;100.00;94727.22;5006749;28;20552;-48
2022/11/22 09:26:13;;;;;;;5.93;3.85;;;;;;;16.94;100.00;94729.50;5006089;28;20469;-45
2022/11/22 09:28:42;;;;;;;7.50;3.90;;;;;;;17.37;100.00;94720.44;5002446;28;20489;-43
2022/11/22 09:31:12;;;;;;;8.65;4.03;;;;;;;17.44;100.00;94724.63;5005899;28;20080;-45
2022/11/22 09:33:43;;;;;;;6.35;4.60;;;;;;;17.46;98.67;94724.41;5006530;28;20105;-46
2022/11/22 09:36:15;;;;;;;6.18;3.55;;;;;;;17.28;100.00;94736.78;5004271;28;20073;-42
2022/11/22 09:38:44;;;;;;;5.63;3.30;;;;;;;17.04;100.00;94733.25;5006437;28;20085;-48
2022/11/22 09:41:22;;;;;;;7.03;3.10;;;;;;;16.59;100.00;94746.09;5007307;28;20480;-45
2022/11/22 09:43:57;;;;;;;6.28;3.70;;;;;;;16.84;100.00;94749.47;5003834;28;20120;-43
2022/11/22 09:46:33;;;;;;;7.22;3.30;;;;;;;17.03;100.00;94747.59;5005033;28;20088;-45
2022/11/22 09:49:12;;;;;;;8.38;3.47;;;;;;;16.93;100.00;94743.84;5004499;28;20077;-44
2022/11/22 09:51:46;;;;;;;6.80;3.17;;;;;;;16.83;100.00;94739.88;5001412;28;20102;-52
2022/11/22 09:54:18;;;;;;;7.38;3.50;;;;;;;16.51;100.00;94747.22;5006529;28;20890;-48
2022/11/22 09:56:47;;;;;;;9.50;3.25;;;;;;;16.07;100.00;94753.63;5004586;28;20089;-44
2022/11/22 09:59:20;;;;;;;5.97;2.88;;;;;;;17.00;100.00;94750.72;5005221;28;20081;-46
2022/11/22 10:01:51;;;;;;;5.68;3.40;;;;;;;16.61;100.00;94755.47;5005193;28;20536;-47
2022/11/22 10:04:23;;;;;;;8.13;3.05;;;;;;;16.48;100.00;94757.47;5005094;28;20086;-43
2022/11/22 10:06:55;;;;;;;7.38;3.20;;;;;;;16.71;100.00;94757.59;5006929;28;20085;-46
2022/11/22 10:09:30;;;;;;;6.38;3.10;;;;;;;16.60;100.00;94758.38;5008012;28;20088;-43
2022/11/22 10:12:02;;;;;;;4.20;2.15;;;;;;;16.29;100.00;94760.16;5008058;28;20081;-50
2022/11/22 10:14:37;;;;;;;5.57;2.85;;;;;;;16.40;100.00;94763.91;5009198;28;20077;-43
2022/11/22 10:17:18;;;;;;;5.82;2.72;;;;;;;16.13;100.00;94758.06;5005413;28;20073;-46
2022/11/22 10:19:51;;;;;;;4.32;2.90;;;;;;;16.48;100.00;94763.66;5008243;28;20081;-50
2022/11/22 10:22:21;;;;;;;6.35;2.67;;;;;;;16.28;100.00;94750.56;5005554;28;20073;-49
2022/11/22 10:24:50;;;;;;;6.53;2.80;;;;;;;16.36;100.00;94747.59;5003179;28;20508;-43
2022/11/22 10:27:18;;;;;;;5.95;3.03;;;;;;;16.57;100.00;94745.50;5007880;28;20069;-44
2022/11/22 10:29:50;;;;;;;6.47;2.55;;;;;;;16.60;100.00;94745.88;5032877;28;20468;-43
2022/11/22 10:32:22;;;;;;;4.88;2.53;;;;;;;16.19;100.00;94751.06;5004514;28;20095;-46
2022/11/22 10:35:08;;;;;;;4.35;2.60;;;;;;;16.20;100.00;94760.66;5005391;28;20081;-46
2022/11/22 10:37:45;;;;;;;5.80;2.35;;;;;;;16.52;100.00;94756.03;5005289;28;20546;-44
2022/11/22 10:40:19;;;;;;;5.65;2.35;;;;;;;16.58;100.00;94761.25;5008324;28;20057;-43
2022/11/22 10:43:05;;;;;;;5.57;2.13;;;;;;;16.70;100.00;94763.97;5002439;28;20735;-43
2022/11/22 10:45:35;;;;;;;6.32;2.58;;;;;;;17.01;94.67;94751.53;5005515;28;20069;-46
2022/11/22 10:48:14;;;;;;;10.65;2.20;;;;;;;17.25;91.77;94752.41;5008245;28;20073;-44
2022/11/22 10:50:50;;;;;;;8.30;2.47;;;;;;;17.05;94.61;94750.03;5005352;28;20176;-48
2022/11/22 10:53:26;;;;;;;5.35;1.90;;;;;;;16.84;95.63;94754.81;5002702;28;20092;-47
2022/11/22 10:55:59;;;;;;;7.25;2.45;;;;;;;17.44;89.73;94739.78;4996103;28;20086;-43
2022/11/22 10:58:35;;;;;;;5.90;2.28;;;;;;;17.04;95.82;94738.56;5004060;28;20072;-45
2022/11/22 11:01:09;;;;;;;5.10;2.20;;;;;;;17.68;88.17;94735.31;5008995;28;20085;-44
2022/11/22 11:03:40;;;;;;;8.18;2.00;;;;;;;17.12;94.52;94736.63;5010117;28;20081;-45
2022/11/22 11:06:13;;;;;;;5.80;1.90;;;;;;;17.40;90.18;94739.44;5007049;28;20068;-45
2022/11/22 11:09:01;;;;;;;4.70;2.15;;;;;;;18.27;83.33;94731.59;5004426;28;20061;-43
2022/11/22 11:11:51;;;;;;;6.40;2.00;;;;;;;18.05;80.17;94738.59;4994857;28;20085;-45
2022/11/22 11:14:26;;;;;;;8.10;1.90;;;;;;;18.00;77.55;94733.16;5001117;28;20065;-44
2022/11/22 11:16:55;;;;;;;6.63;1.50;;;;;;;18.04;67.88;94742.31;5004140;28;20069;-42
2022/11/22 11:19:24;;;;;;;9.75;1.88;;;;;;;17.76;67.59;94746.47;4999944;28;20081;-45
2022/11/22 11:21:58;;;;;;;7.32;1.50;;;;;;;17.83;62.90;94740.22;5008878;28;20085;-42
2022/11/22 11:24:29;;;;;;;3.50;1.42;;;;;;;17.79;61.91;94742.56;4995667;28;20073;-49
2022/11/22 11:27:00;;;;;;;4.53;1.20;;;;;;;17.86;64.45;94753.91;4996411;28;20085;-44
2022/11/22 11:29:49;;;;;;;6.38;1.30;;;;;;;17.58;67.20;94743.06;4999773;28;20088;-46
2022/11/22 11:32:20;;;;;;;5.45;1.30;;;;;;;18.01;61.48;94740.91;4995520;28;20084;-43
2022/11/22 11:34:53;;;;;;;7.15;1.70;;;;;;;18.31;64.14;94737.28;4996520;28;20081;-42
2022/11/22 11:37:25;;;;;;;4.53;1.30;;;;;;;17.79;66.61;94742.56;4999344;28;20077;-44
2022/11/22 11:39:54;;;;;;;6.90;1.40;;;;;;;18.13;63.24;94732.06;4998170;28;20073;-42
2022/11/22 11:42:28;;;;;;;3.80;1.40;;;;;;;17.94;60.47;94732.22;4996123;28;20065;-42
2022/11/22 11:45:20;;;;;;;7.43;1.42;;;;;;;18.25;60.40;94733.69;5001818;28;20073;-43
2022/11/22 11:47:49;;;;;;;5.32;1.30;;;;;;;18.85;56.14;94721.00;4996590;28;20474;-45
2022/11/22 11:50:19;;;;;;;5.72;1.55;;;;;;;18.69;57.67;94730.56;5001804;28;20070;-44
2022/11/22 11:52:55;;;;;;;5.93;2.33;;;;;;;18.89;57.06;94735.50;4997003;28;20086;-42
2022/11/22 11:55:25;;;;;;;5.72;2.13;;;;;;;18.67;56.54;94735.31;4998659;28;20448;-42
2022/11/22 11:57:54;;;;;;;8.98;1.92;;;;;;;18.46;58.78;94732.25;5002546;28;20096;-42
2022/11/22 12:00:26;;;;;;;5.65;2.00;;;;;;;18.66;59.38;94726.50;4994304;28;20084;-43